Tiempo atmosférico en la estación meteorológica de Valencia Aeropuerto, València/Valencia (69 m.)



Fecha
DESCASC
Temp. máxima en grados centígrados (hora)
DESCASC
Temp. mínima en grados centígrados (hora)
DESCASC
Temp. media en grados centígrados
DESCASC
Racha de viento máxima en m/sg (hora)
DESCASC
Velocidad máxima media en intervalos de 10 minutos(hora)
DESCASC
Precipitaciones diarias en mm
DESCASC
Precipitaciones de 00:00 a 06:00 en mm
DESCASC
Precipitaciones de 06:00 a 12:00 en mm
DESCASC
Precipitaciones de 12:00 a 18:00 en mm
DESCASC
Precipitaciones de 18:00 a 24:00 en mm
DESCASC
16-04-2019 19.8 (16:40) 10.2 (07:50) 15 9.17 (12:50) 5.83 (13:10) 0 0 0 0 0
15-04-2019 19.8 (15:10) 12.9 (08:00) 16.3 11.39 (13:30) 7.78 (16:10) 0 0 0 0 0
14-04-2019 30.5 (17:50) 7.6 (05:50) 19 11.39 (17:00) 7.78 (17:30) 0 0 0 0 0
13-04-2019 23 (14:20) 6.7 (00:00) 14.8 8.89 (17:20) 5.83 (18:20) 0 0 0 0 0
12-04-2019 22.6 (15:10) 7.3 (07:50) 15 10.83 (15:40) 6.94 (17:10) 0 0 0 0 0
11-04-2019 23.6 (16:40) 6.9 (00:00) 15.3 9.72 (18:00) 6.94 (18:20) 0 0 0 0 0
10-04-2019 21 (16:40) 9 (00:00) 15 13.33 (17:10) 8.89 (15:10) 0.1 0 0 0.1 0
09-04-2019 21.1 (16:30) 11.5 (00:00) 16.3 19.72 (17:20) 13.33 (17:20) 0.1 0 0 0.1 0
08-04-2019 24.1 (16:50) 12.2 (00:00) 18.2 15 (20:00) 10.28 (20:00) 0 0 0 0 0
07-04-2019 20 (17:00) 7.5 (00:00) 13.8 14.44 (14:40) 10 (16:10) 0 0 0 0 0
06-04-2019 16.4 (16:00) 8 (00:00) 12.2 17.5 (16:20) 11.11 (16:20) 0.9 0 0 0 0.9
05-04-2019 19 (12:50) 6.7 (00:00) 12.8 12.78 (15:50) 8.61 (15:50) 2.7 0 0 2.3 0.4
04-04-2019 19.1 (15:20) 8.1 (00:00) 13.6 11.39 (18:40) 8.61 (18:40) 0.2 0.2 0 0 0
03-04-2019 23.6 (17:00) 7.9 (07:40) 15.8 14.44 (20:00) 10 (20:00) 0 0 0 0 0
02-04-2019 21.7 (14:10) 8.3 (00:00) 15 8.33 (14:20) 5 (14:40) 2.8 0 0 2.5 0.3
01-04-2019 17.4 (17:20) 11 (00:00) 14.2 8.33 (13:00) 4.17 (13:00) 6.5 4.6 1.9 0 0
31-03-2019 12.5 (16:40) 10 (00:00) 11.3 12.78 (18:50) 8.33 (18:50) 15.6 0 8.5 5.2 1.9
30-03-2019 16.9 (14:20) 6.7 (00:00) 11.8 8.33 (14:10) 5.28 (11:40) 0 0 0 0 0
29-03-2019 18 (15:20) 5.4 (00:00) 11.7 8.89 (15:40) 5 (16:10) 0 0 0 0 0
28-03-2019 18.7 (11:30) 3.3 (00:00) 11 8.89 (16:00) 5.83 (16:30) 0 0 0 0 0
27-03-2019 18.9 (13:40) 5.7 (00:00) 12.3 9.17 (15:20) 5.83 (15:50) 0 0 0 0 0
26-03-2019 17.9 (12:10) 5.9 (00:00) 11.9 10.28 (13:30) 6.39 (13:20) 0 0 0 0 0
25-03-2019 22.1 (14:50) 6.4 (00:00) 14.3 9.72 (13:10) 5.28 (13:10) 0 0 0 0 0
24-03-2019 23.9 (15:20) 6.6 (00:00) 15.2 8.89 (15:10) 4.44 (15:50) 0 0 0 0 0
23-03-2019 19.6 (15:30) 7.4 (00:00) 13.5 8.33 (14:20) 5.83 (15:40) 0 0 0 0 0
22-03-2019 18.4 (14:50) 5.8 (00:00) 12.1 11.39 (14:20) 7.5 (14:10) 0 0 0 0 0
21-03-2019 16.6 (14:50) 5.8 (00:00) 11.2 12.5 (11:50) 7.78 (11:50) 0 0 0 0 0
20-03-2019 15.7 (13:30) 7.3 (00:00) 11.5 9.17 (13:50) 5 (13:50) 16.1 16.1 0 0 0
19-03-2019 17.2 (13:00) 6.6 (00:00) 11.9 10.83 (06:30) 7.78 (06:30) 0.1 0 0 0 0.1

Gráficas

Temp. máximas Temp. mínimas Temp. medias Precipitaciones Rachas de viento máximas Velocidades máximas media en intervalos de 10 minutos

Datos horarios

Fecha y hora oficial Temperatura (ºC) Velocidad del viento (km/h) Dirección del viento Racha (km/h) Dirección de racha Precipitación (mm) Presión (hPa) Tendencia (hPa) Humedad (%)
2019-04-17 23:00:00 15 14 Nordeste 24 Este 0 1009.4 0.6 79
2019-04-17 22:00:00 15 13 Nordeste 24 Nordeste 0 1009.4 0.6 80
2019-04-17 21:00:00 14.9 15 Este 37 Nordeste 0 1009 0.2 79
2019-04-17 20:00:00 15.5 17 Este 26 Este 0 1008.8 -0.2 77
2019-04-17 19:00:00 16.2 17 Este 28 Este 0 1008.8 -0.9 71
2019-04-17 18:00:00 16.9 18 Este 28 Este 0 1008.8 -1.3 68
2019-04-17 17:00:00 17.8 19 Este 33 Este 0 1009 -1.5 66
2019-04-17 16:00:00 17.9 22 Este 32 Este 0 1009.7 -1.3 64
2019-04-17 15:00:00 18.1 20 Este 35 Este 0 1010.1 -1 65
2019-04-17 14:00:00 18.8 22 Este 33 Este 0 1010.5 -1.5 63
2019-04-17 13:00:00 19.4 20 Este 32 Nordeste 0 1011 -0.9 56
2019-04-17 12:00:00 18.4 11 Este 24 Nordeste 0 1011.1 -0.6 56
2019-04-17 11:00:00 16.8 11 Nordeste 18 Nordeste 0 1012 0.3 64
2019-04-17 10:00:00 14.9 5 Oeste 11 Norte 0 1011.9 0.6 71
2019-04-17 09:00:00 13.7 8 Noroeste 15 Noroeste 0 1011.7 0.3 77
2019-04-17 08:00:00 13 9 Noroeste 13 Noroeste 0 1011.7 -0.2 85
2019-04-17 07:00:00 12.7 7 Noroeste 11 Noroeste 0 1011.3 -1.1 87
2019-04-17 06:00:00 12.6 7 Noroeste 11 Noroeste 0 1011.4 -1.5 87
2019-04-17 05:00:00 12.5 8 Noroeste 13 Noroeste 0 1011.9 -1.5 89
2019-04-17 04:00:00 12.3 9 Noroeste 13 Norte 0 1012.4 -1.3 90
2019-04-17 03:00:00 12.7 6 Noroeste 9 Norte 0 1012.9 -0.8 87
2019-04-17 02:00:00 13.5 6 Norte 11 Norte 0 1013.4 0 86
2019-04-17 01:00:00 14 8 Nordeste 15 Nordeste 0 1013.7 0.7 84
2019-04-17 00:00:00 14.5 12 Nordeste 21 Nordeste 0 1013.7 1.3 83
2019-04-16 23:00:00 14.5 11 Este 21 Este 0 1013.4 1.3 84
2019-04-16 22:00:00 14.7 12 Este 21 Este 0 1013 1.1 82
2019-04-16 21:00:00 15.1 13 Este 24 Este 0 1012.4 0.6 80
2019-04-16 20:00:00 16.4 13 Este 26 Este 0 1012.1 0.1 72
2019-04-16 19:00:00 18 15 Este 28 Este 0 1011.9 0 61
2019-04-16 18:00:00 18.8 17 Este 30 Este 0 1011.8 -0.8 54
2019-04-16 17:00:00 19.2 15 Este 30 Este 0 1012 -0.7 54
2019-04-16 16:00:00 19.2 20 Este 30 Este 0 1011.9 -0.8 57
2019-04-16 15:00:00 19.2 15 Este 32 Este 0 1012.6 0 59
2019-04-16 14:00:00 18.9 18 Este 30 Nordeste 0 1012.7 0.4 63
2019-04-16 13:00:00 18.6 17 Este 33 Este 0 1012.7 0.9 62
2019-04-16 12:00:00 18.3 13 Este 22 Este 0 1012.6 1.1 64
2019-04-16 11:00:00 17.7 13 Este 24 Este 0 1012.3 2 67
2019-04-16 10:00:00 16.6 10 Este 21 Este 0 1011.8 2.1 71
2019-04-16 09:00:00 13.5 6 Oeste 9 Oeste 0 1011.5 2.5 81
2019-04-16 08:00:00 10.3 0 Calma 15 Nordeste 0 1010.3 1.6 90
2019-04-16 07:00:00 10.9 7 Norte 13 Noroeste 0 1009.7 1.1 90
2019-04-16 06:00:00 11.3 5 Noroeste 9 Oeste 0 1009 -0.2 89
2019-04-16 05:00:00 11.3 7 Oeste 11 Oeste 0 1008.7 -0.5 89
2019-04-16 04:00:00 12 8 Oeste 11 Oeste 0 1008.6 -0.6 86
2019-04-16 03:00:00 13.2 6 Noroeste -- -- 0 1009.2 0.1 81
2019-04-16 02:00:00 14.6 5 Oeste 9 Noroeste 0 1009.2 0.4 73
2019-04-16 01:00:00 15.1 7 Norte 15 Nordeste 0 1009.2 0.9 69
2019-04-16 00:00:00 15.1 11 Nordeste 18 Nordeste 0 1009.1 1.4 72
2019-04-15 23:00:00 15.3 10 Este 26 Nordeste 0 1008.8 1.5 72
2019-04-15 22:00:00 15.3 14 Nordeste 21 Nordeste 0 1008.3 0.8 73
2019-04-15 21:00:00 15.1 11 Este 24 Este 0 1007.7 0.1 76
2019-04-15 20:00:00 16.2 16 Este 26 Nordeste 0 1007.3 -0.4 72
2019-04-15 19:00:00 17.3 18 Este 32 Nordeste 0 1007.5 -0.5 64
2019-04-15 18:00:00 17.9 22 Este 39 Este 0 1007.6 -1.2 61
2019-04-15 17:00:00 18.1 23 Este 39 Este 0 1007.7 -1.5 60
2019-04-15 16:00:00 18.8 24 Este 41 Este 0 1008 -1.4 58
2019-04-15 15:00:00 19.3 23 Este 39 Nordeste 0 1008.8 -1 57
2019-04-15 14:00:00 19 26 Este 41 Nordeste 0 1009.2 -0.8 55
2019-04-15 13:00:00 19.2 21 Este 37 Este 0 1009.4 -0.7 56
2019-04-15 12:00:00 19.1 22 Este 32 Este 0 1009.8 -0.1 58
2019-04-15 11:00:00 18.1 13 Nordeste 28 Este 0 1010 0 62
2019-04-15 10:00:00 16.3 7 Norte 18 Norte 0 1010.1 0.7 74
2019-04-15 09:00:00 14.7 8 Noroeste 18 Norte 0 1009.9 1 83
2019-04-15 08:00:00 12.9 9 Noroeste 13 Nordeste 0 1010 1.3 89
2019-04-15 07:00:00 13.9 5 Norte 22 Norte 0 1009.4 0.9 84
2019-04-15 06:00:00 14.1 12 Nordeste 30 Este 0 1008.9 0.6 88
2019-04-15 05:00:00 14.3 17 Este 28 Este 0 1008.7 0.3 89
2019-04-15 04:00:00 14.5 12 Este 21 Este 0 1008.5 0.3 86
2019-04-15 03:00:00 14.7 6 Sudeste 15 Este 0 1008.3 0.6 83
2019-04-15 02:00:00 14.9 10 Este 13 Este 0 1008.4 1.1 79
2019-04-15 01:00:00 15.6 8 Este 13 Este 0 1008.2 1.7 74
2019-04-15 00:00:00 16.9 7 Este 18 Este 0 1007.7 2.7 65
2019-04-14 23:00:00 18.2 9 Este 32 Nordeste 0 1007.3 3.6 56
2019-04-14 22:00:00 19.3 22 Nordeste 35 Nordeste 0 1006.5 3 55
2019-04-14 21:00:00 22.9 23 Nordeste 33 Nordeste 0 1005 1.4 34
2019-04-14 20:00:00 28.6 19 Sudoeste 37 Oeste 0 1003.7 -0.5 23
2019-04-14 19:00:00 30.1 18 Sudoeste 35 Sudoeste 0 1003.5 -1.6 21
2019-04-14 18:00:00 30.4 24 Sudoeste 39 Sur 0 1003.6 -2.4 20
2019-04-14 17:00:00 30.1 22 Sur 41 Sur 0 1004.2 -2.3 20
2019-04-14 16:00:00 29.8 15 Sudoeste 30 Oeste 0 1005.1 -2 19
2019-04-14 15:00:00 29.1 9 Oeste 28 Oeste 0 1006 -1.8 18
2019-04-14 14:00:00 28.3 17 Oeste 30 Noroeste 0 1006.5 -1.8 19
2019-04-14 13:00:00 27.1 5 Norte 15 Este 0 1007.1 -1.2 20
2019-04-14 12:00:00 25.2 9 Nordeste 17 Este 0 1007.8 -0.5 21
2019-04-14 11:00:00 22.4 3 Norte 15 Noroeste 0 1008.3 0.2 24
2019-04-14 10:00:00 18.5 8 Noroeste 13 Noroeste 0 1008.3 0.4 29
2019-04-14 09:00:00 13.1 9 Noroeste 13 Noroeste 0 1008.3 0.4 47
2019-04-14 08:00:00 8.5 12 Oeste 18 Oeste 0 1008.1 -0.3 61
2019-04-14 07:00:00 9 8 Oeste 15 Oeste 0 1007.9 -0.7 57
2019-04-14 06:00:00 7.7 10 Oeste 18 Oeste 0 1007.9 -1 67
2019-04-14 05:00:00 8.9 15 Oeste 18 Oeste 0 1008.4 -1.1 64
2019-04-14 04:00:00 8.3 8 Oeste 17 Oeste 0 1008.6 -1.4 69
2019-04-14 03:00:00 8.5 11 Oeste 13 Oeste 0 1008.9 -1.4 73
2019-04-14 02:00:00 9.6 9 Oeste 13 Oeste 0 1009.5 -0.8 78
2019-04-14 01:00:00 10.8 10 Noroeste 15 Noroeste 0 1010 0.1 77
2019-04-14 00:00:00 11.6 7 Oeste 11 Noroeste 0 1010.3 1 83
2019-04-13 23:00:00 13 8 Noroeste 21 Nordeste 0 1010.3 1.2 76
2019-04-13 22:00:00 15.7 5 Norte 15 Norte 0 1009.9 1.1 58
2019-04-13 21:00:00 16.4 10 Este 28 Este 0 1009.3 0.6 50
2019-04-13 20:00:00 18.4 12 Este 24 Este 0 1009.1 0.3 47
2019-04-13 19:00:00 19.6 16 Sudeste 28 Sudeste 0 1008.8 -0.4 43
2019-04-13 18:00:00 21.7 19 Sudeste 32 Sudeste 0 1008.7 -0.9 21
2019-04-13 17:00:00 22.4 17 Sudeste 28 Sudeste 0 1008.8 -1.4 25
2019-04-13 16:00:00 22.6 11 Sudeste 24 Sudeste 0 1009.2 -1.6 25
2019-04-13 15:00:00 22.6 15 Sudeste 24 Sudeste 0 1009.6 -1.7 28
2019-04-13 14:00:00 22.1 5 Sudoeste 13 Oeste 0 1010.2 -1 21
2019-04-13 13:00:00 21 8 Sudeste 17 Sudeste 0 1010.8 0 22
2019-04-13 12:00:00 20.1 2 Sudeste 13 Norte 0 1011.3 0.5 24
2019-04-13 11:00:00 18.4 3 Este 17 Nordeste 0 1011.2 0.9 30
2019-04-13 10:00:00 15.6 4 Sur 13 Oeste 0 1010.8 1.3 42
2019-04-13 09:00:00 11.3 7 Oeste 9 Oeste 0 1010.8 1.7 59
2019-04-13 08:00:00 7.8 3 Noroeste 11 Oeste 0 1010.3 1.2 73
2019-04-13 07:00:00 7.3 9 Oeste 15 Oeste 0 1009.5 0.2 75
2019-04-13 06:00:00 7.5 11 Oeste 13 Oeste 0 1009.1 -0.5 76
2019-04-13 05:00:00 8 5 Sudoeste 8 Sudoeste 0 1009.1 -0.8 75
2019-04-13 04:00:00 8.7 7 Sur 15 Oeste 0 1009.3 -0.6 73
2019-04-13 03:00:00 8.9 4 Noroeste 9 Noroeste 0 1009.6 0 75
2019-04-13 02:00:00 9.4 7 Oeste 17 Noroeste 0 1009.9 0.5 77
2019-04-13 01:00:00 10.3 12 Oeste 13 Oeste 0 1009.9 1 77
2019-04-13 00:00:00 11.9 7 Oeste 15 Noroeste 0 1009.6 1.5 70
2019-04-12 23:00:00 13.6 8 Noroeste 22 Nordeste 0 1009.4 1.7 65
2019-04-12 22:00:00 15 9 Nordeste 30 Sudeste 0 1008.9 1.3 61
2019-04-12 21:00:00 15.8 11 Este 17 Este 0 1008.1 0.7 53
2019-04-12 20:00:00 17.4 15 Este 26 Sudeste 0 1007.7 0.5 41
2019-04-12 19:00:00 18.7 22 Sudeste 33 Sudeste 0 1007.6 0 33
2019-04-12 18:00:00 20 23 Sudeste 33 Sudeste 0 1007.4 -0.8 31
2019-04-12 17:00:00 20.8 24 Sudeste 35 Sudeste 0 1007.2 -1.3 29
2019-04-12 16:00:00 21.5 21 Sudeste 39 Sudeste 0 1007.6 -1.4 29
2019-04-12 15:00:00 21.9 8 Este 21 Sur 0 1008.2 -1.2 23
2019-04-12 14:00:00 21.5 9 Sur 18 Sudeste 0 1008.5 -0.9 25
2019-04-12 13:00:00 20.3 7 Sudoeste 17 Sudoeste 0 1009 -0.2 27
2019-04-12 12:00:00 19.3 6 Sur 15 Sur 0 1009.4 0.1 28
2019-04-12 11:00:00 17.2 5 Oeste 17 Noroeste 0 1009.4 0.5 34
2019-04-12 10:00:00 14.2 9 Oeste 17 Oeste 0 1009.2 0.9 46
2019-04-12 09:00:00 10.8 10 Oeste 13 Oeste 0 1009.3 1.3 58
2019-04-12 08:00:00 7.5 9 Oeste 15 Oeste 0 1008.9 0.6 70
2019-04-12 07:00:00 7.8 12 Oeste 17 Noroeste 0 1008.3 0 69
2019-04-12 06:00:00 9.9 11 Oeste 22 Oeste 0 1008 -0.7 60
2019-04-12 05:00:00 9.4 13 Oeste 15 Noroeste 0 1008.3 -0.8 65
2019-04-12 04:00:00 9.8 10 Oeste 15 Noroeste 0 1008.3 -0.8 62
2019-04-12 03:00:00 10 9 Oeste 17 Oeste 0 1008.7 -0.3 62
2019-04-12 02:00:00 10.9 13 Oeste 22 Noroeste 0 1009.1 0.3 59
2019-04-12 01:00:00 12.7 14 Noroeste 24 Noroeste 0 1009.1 0.7 54
2019-04-12 00:00:00 12.7 13 Noroeste 22 Noroeste 0 1009 1.6 61
2019-04-11 23:00:00 12.5 9 Noroeste 13 Noroeste 0 1008.8 2 65
2019-04-11 22:00:00 13.9 10 Oeste 18 Noroeste 0 1008.4 1.9 61
2019-04-11 21:00:00 16.1 3 Este 13 Nordeste 0 1007.4 1.7 56
2019-04-11 20:00:00 17.3 9 Este 28 Este 0 1006.8 1.1 50
2019-04-11 19:00:00 17.6 21 Este 35 Este 0 1006.5 0.5 51
2019-04-11 18:00:00 21.9 20 Nordeste 35 Nordeste 0 1005.7 -1 32
2019-04-11 17:00:00 23 9 Oeste 26 Noroeste 0 1005.7 -1.4 22
2019-04-11 16:00:00 22.1 8 Oeste 32 Norte 0 1006 -1.7 23
2019-04-11 15:00:00 22.2 9 Oeste 26 Noroeste 0 1006.7 -1.5 23
2019-04-11 14:00:00 20.9 8 Oeste 32 Noroeste 0 1007.1 -1 25
2019-04-11 13:00:00 19.7 13 Noroeste 30 Noroeste 0 1007.7 -0.4 28
2019-04-11 12:00:00 18.5 21 Noroeste 33 Noroeste 0 1008.2 0.2 31
2019-04-11 11:00:00 16.9 16 Noroeste 26 Noroeste 0 1008.1 0.6 36
2019-04-11 10:00:00 14.9 12 Noroeste 21 Noroeste 0 1008.1 1.2 46
2019-04-11 09:00:00 11.1 8 Oeste 13 Oeste 0 1008 1.1 62
2019-04-11 08:00:00 7.2 10 Oeste 15 Oeste 0 1007.5 0.7 78
2019-04-11 07:00:00 7.8 11 Oeste 17 Oeste 0 1006.9 0.2 72
2019-04-11 06:00:00 8.5 14 Oeste 17 Oeste 0 1006.9 0.3 70
2019-04-11 05:00:00 8.7 11 Oeste 18 Oeste 0 1006.8 -0.1 72
2019-04-11 04:00:00 10.9 10 Noroeste 26 Oeste 0 1006.7 -0.1 63
2019-04-11 03:00:00 10 12 Oeste 17 Oeste 0 1006.6 0.2 68
2019-04-11 02:00:00 12.5 12 Oeste 26 Noroeste 0 1006.9 0.8 57
2019-04-11 01:00:00 13.3 19 Noroeste 28 Noroeste 0 1006.8 1.1 53
2019-04-11 00:00:00 13 18 Noroeste 30 Noroeste 0 1006.4 1.8 55
2019-04-10 23:00:00 13.6 20 Noroeste 39 Noroeste 0 1006.1 2 53
2019-04-10 22:00:00 14.2 23 Noroeste 33 Noroeste 0 1005.7 2.3 54
2019-04-10 21:00:00 14.4 13 Noroeste 22 Noroeste 0 1004.6 1.1 56
2019-04-10 20:00:00 15.5 14 Noroeste 21 Norte 0 1004.1 1.2 49
2019-04-10 19:00:00 16.5 5 Norte 33 Noroeste 0 1003.4 0.2 42
2019-04-10 18:00:00 15.8 24 Noroeste 48 Norte 0.1 1003.5 0.2 47
2019-04-10 17:00:00 19 32 Noroeste 45 Noroeste 0 1002.9 -0.5 26
2019-04-10 16:00:00 19.8 26 Norte 45 Oeste 0 1003.2 -0.7 26
2019-04-10 15:00:00 20.1 25 Oeste 42 Noroeste 0 1003.3 -1 28
2019-04-10 14:00:00 18.3 19 Norte 33 Noroeste 0 1003.4 -1.1 31
2019-04-10 13:00:00 18.6 21 Noroeste 32 Noroeste 0 1003.9 -0.6 31
2019-04-10 12:00:00 18.2 18 Noroeste 41 Oeste 0 1004.3 -0.1 33
2019-04-10 11:00:00 16.6 30 Oeste 42 Noroeste 0 1004.5 0.4 38
2019-04-10 10:00:00 15.2 24 Oeste 41 Oeste 0 1004.5 0.7 45
2019-04-10 09:00:00 12.6 14 Oeste 21 Oeste 0 1004.4 0.8 56
2019-04-10 08:00:00 9.6 20 Oeste 24 Oeste 0 1004.1 0.3 67
2019-04-10 07:00:00 9.1 20 Oeste 26 Sudoeste 0 1003.8 0 70
2019-04-10 06:00:00 9.8 19 Oeste 30 Oeste 0 1003.6 -0.7 66
2019-04-10 05:00:00 10.7 17 Oeste 28 Oeste 0 1003.8 -0.7 61
2019-04-10 04:00:00 11.9 21 Oeste 35 Oeste 0 1003.8 -0.7 56
2019-04-10 03:00:00 11.7 14 Sudoeste 21 Sudoeste 0 1004.3 -0.3 61
2019-04-10 02:00:00 12.3 10 Sudoeste 22 Oeste 0 1004.5 -0.4 56
2019-04-10 01:00:00 12.6 13 Oeste 28 Sudoeste 0 1004.5 0.5 52
2019-04-10 00:00:00 13 16 Sudoeste 24 Oeste 0 1004.6 0.9 47
2019-04-09 23:00:00 12.6 12 Oeste 26 Oeste 0 1004.9 1.2 50
2019-04-09 22:00:00 12 11 Oeste 21 Oeste 0 1004 0.2 69
2019-04-09 21:00:00 13.9 15 Sudoeste 24 Noroeste 0 1003.7 -0.1 61
2019-04-09 20:00:00 15.2 15 Noroeste 28 Noroeste 0 1003.7 1.1 56
2019-04-09 19:00:00 15.2 19 Noroeste 50 Oeste 0 1003.8 0.8 57
2019-04-09 18:00:00 15.5 40 Oeste 71 Oeste 0.1 1003.8 -0.1 51
2019-04-09 17:00:00 20.1 31 Oeste 48 Oeste 0 1002.6 -2 31
2019-04-09 16:00:00 20.4 29 Oeste 50 Oeste 0 1003 -1.9 29
2019-04-09 15:00:00 19.9 38 Oeste 58 Oeste 0 1003.9 -1.5 31
2019-04-09 14:00:00 19.3 33 Oeste 54 Oeste -- 1004.6 -0.8 29
2019-04-09 13:00:00 17.9 27 Oeste 46 Oeste 0 1004.9 -0.5 34
2019-04-09 12:00:00 17.9 30 Oeste 46 Oeste 0 1005.4 0.2 34
2019-04-09 11:00:00 17.2 28 Oeste 42 Oeste 0 1005.4 0.6 40
2019-04-09 10:00:00 16 22 Oeste 35 Oeste 0 1005.4 1.1 46
2019-04-09 09:00:00 13.9 18 Oeste 30 Oeste 0 1005.2 1.2 54
2019-04-09 08:00:00 11.7 21 Oeste 35 Oeste 0 1004.8 1.1 62
2019-04-09 07:00:00 11.8 27 Oeste 37 Oeste 0 1004.3 0.5 61
2019-04-09 06:00:00 12.5 24 Oeste 41 Oeste 0 1004 0.1 60
2019-04-09 05:00:00 13 32 Oeste 41 Oeste 0 1003.7 -0.5 61
2019-04-09 04:00:00 14.3 19 Oeste 39 Oeste 0 1003.8 -0.4 58
2019-04-09 03:00:00 15.1 27 Oeste 37 Oeste 0 1003.9 0 60
2019-04-09 02:00:00 15.8 21 Oeste 35 Oeste 0 1004.2 0.2 59
2019-04-09 01:00:00 15.8 4 Oeste 15 Oeste 0 1004.2 0.7 63
2019-04-09 00:00:00 16.2 14 Oeste 28 Oeste 0 1003.9 0.9 62
2019-04-08 23:00:00 16.1 15 Oeste 33 Oeste 0 1004 1.4 63
2019-04-08 22:00:00 17 26 Oeste 50 Oeste 0 1003.5 1.1 57
2019-04-08 21:00:00 18.1 27 Oeste 52 Oeste 0 1003 0.8 47
2019-04-08 20:00:00 20.6 37 Oeste 54 Oeste 0 1002.6 0 39
2019-04-08 19:00:00 22.2 22 Oeste 50 Oeste 0 1002.4 -0.6 31
2019-04-08 18:00:00 23.8 35 Oeste 48 Oeste 0 1002.2 -1.9 28
2019-04-08 17:00:00 23.5 24 Oeste 45 Oeste 0 1002.6 -2 31
2019-04-08 16:00:00 23.7 25 Oeste 37 Oeste 0 1003 -1.7 33
2019-04-08 15:00:00 22.2 25 Oeste 42 Oeste 0 1004.1 -1.3 38
2019-04-08 14:00:00 20.4 27 Oeste 41 Oeste 0 1004.6 -0.8 45
2019-04-08 13:00:00 19.8 31 Oeste 42 Oeste 0 1004.7 -0.8 48
2019-04-08 12:00:00 18.3 13 Oeste 24 Sudoeste 0 1005.4 -0.3 56
2019-04-08 11:00:00 17.1 13 Sudoeste 28 Oeste 0 1005.4 0.1 60
2019-04-08 10:00:00 15.3 20 Oeste 30 Oeste 0 1005.5 0 68
2019-04-08 09:00:00 14.1 13 Sudoeste 22 Sudoeste 0 1005.7 0.3 69
2019-04-08 08:00:00 13.1 15 Oeste 24 Oeste 0 1005.3 -0.5 74
2019-04-08 07:00:00 12.8 9 Sudoeste 17 Oeste 0 1005.5 -0.7 71
2019-04-08 06:00:00 12.2 13 Oeste 18 Oeste 0 1005.4 -1.2 65
2019-04-08 05:00:00 12.9 15 Oeste 21 Oeste 0 1005.8 -1.2 59
2019-04-08 04:00:00 12.9 11 Oeste 18 Oeste 0 1006.2 -0.7 59
2019-04-08 03:00:00 13.6 12 Oeste 17 Oeste 0 1006.6 -0.1 56
2019-04-08 02:00:00 14.7 12 Oeste 21 Oeste 0 1007 0.5 48
2019-04-08 01:00:00 15 14 Oeste 21 Oeste 0 1006.9 0.8 44
2019-04-08 00:00:00 15.2 13 Oeste 18 Oeste 0 1006.7 1.5 43
2019-04-07 23:00:00 15.6 14 Oeste 21 Oeste 0 1006.5 1.9 38
2019-04-07 22:00:00 15.8 12 Oeste 18 Oeste 0 1006.1 2.1 36
2019-04-07 21:00:00 16.9 12 Sudoeste 15 Sudoeste 0 1005.2 1.8 33
2019-04-07 20:00:00 18 11 Oeste 32 Noroeste 0 1004.6 1.7 29
2019-04-07 19:00:00 18.7 24 Noroeste 37 Noroeste 0 1004 1.1 25
2019-04-07 18:00:00 19.5 20 Oeste 46 Noroeste 0 1003.4 0.4 24
2019-04-07 17:00:00 19.8 30 Noroeste 52 Noroeste 0 1002.9 0.2 24
2019-04-07 16:00:00 19.4 29 Oeste 48 Oeste 0 1002.9 0.3 25
2019-04-07 15:00:00 18.4 29 Oeste 52 Oeste 0 1003 0.8 27
2019-04-07 14:00:00 18 35 Oeste 48 Oeste 0 1002.7 1.2 29
2019-04-07 13:00:00 17.2 27 Oeste 46 Noroeste 0 1002.6 1.6 35
2019-04-07 12:00:00 16.1 28 Oeste 45 Oeste 0 1002.2 1.8 37
2019-04-07 11:00:00 14.6 28 Oeste 46 Oeste 0 1001.5 1.5 45
2019-04-07 10:00:00 13 23 Oeste 37 Oeste 0 1001 1.7 51
2019-04-07 09:00:00 10.2 19 Oeste 26 Oeste 0 1000.4 1.8 63
2019-04-07 08:00:00 9.3 18 Oeste 32 Sudoeste 0 1000 1.7 66
2019-04-07 07:00:00 8.7 14 Oeste 28 Oeste 0 999.3 1.1 70
2019-04-07 06:00:00 9 22 Oeste 33 Oeste 0 998.6 0.5 68
2019-04-07 05:00:00 8.7 17 Oeste 24 Oeste 0 998.3 -0.3 71
2019-04-07 04:00:00 8.5 15 Oeste 28 Oeste 0 998.2 -0.6 75
2019-04-07 03:00:00 7.9 15 Oeste 18 Sudoeste 0 998.1 -0.7 80
2019-04-07 02:00:00 7.8 9 Oeste 15 Oeste 0 998.6 0.3 82
2019-04-07 01:00:00 9.1 12 Oeste 41 Oeste 0 998.8 1.1 76
2019-04-07 00:00:00 10.8 26 Oeste 37 Oeste 0 998.8 1.4 64
2019-04-06 23:00:00 10.8 10 Oeste 24 Sudoeste 0 998.3 1.1 65
2019-04-06 22:00:00 12 17 Sudoeste 28 Sudoeste 0 997.7 1 60
2019-04-06 21:00:00 11.8 15 Sudoeste 24 Sudoeste 0 997.4 0.9 63
2019-04-06 20:00:00 12.4 15 Oeste 26 Oeste 0.1 997.2 0.6 64
2019-04-06 19:00:00 11.2 20 Oeste 58 Oeste 0.8 996.7 0.1 73
2019-04-06 18:00:00 15.3 24 Oeste 41 Oeste 0 996.5 -0.3 46
2019-04-06 17:00:00 15.4 18 Oeste 63 Oeste 0 996.6 -0.5 44
2019-04-06 16:00:00 16.2 31 Oeste 48 Oeste 0 996.6 -0.5 41
2019-04-06 15:00:00 14.4 22 Noroeste 50 Oeste 0 996.8 -0.4 56
2019-04-06 14:00:00 15.6 28 Oeste 54 Oeste 0 997.1 0 41
2019-04-06 13:00:00 15.5 32 Oeste 50 Oeste 0 997.1 0 41
2019-04-06 12:00:00 13.6 31 Oeste 50 Oeste 0 997.2 0.3 48
2019-04-06 11:00:00 13.1 30 Oeste 45 Sudoeste 0 997.1 1.1 50
2019-04-06 10:00:00 11.8 29 Oeste 41 Sudoeste 0 997.1 1.9 56
2019-04-06 09:00:00 10 22 Sudoeste 32 Sudoeste 0 996.9 2.2 64
2019-04-06 08:00:00 9.1 23 Sudoeste 33 Sudoeste 0 996 1.4 69
2019-04-06 07:00:00 8.9 22 Sudoeste 39 Sudoeste 0 995.2 0.9 69
2019-04-06 06:00:00 8.8 33 Sudoeste 42 Oeste 0 994.7 0.7 69
2019-04-06 05:00:00 8.1 25 Oeste 33 Oeste 0 994.6 0.6 71
2019-04-06 04:00:00 8.3 12 Oeste 26 Oeste 0 994.3 0.2 68
2019-04-06 03:00:00 8.8 17 Oeste 46 Oeste 0 994 -0.2 65
2019-04-06 02:00:00 9.7 30 Oeste 42 Oeste 0 994 0 61
2019-04-06 01:00:00 9.2 22 Oeste 37 Oeste 0 994.1 0.3 64
2019-04-06 00:00:00 9.3 12 Noroeste 30 Sudoeste 0 994.2 1.4 67
2019-04-05 23:00:00 9.1 18 Oeste 26 Oeste 0 994 1.7 73
2019-04-05 22:00:00 10.1 18 Oeste 46 Oeste 0 993.8 1.1 74
2019-04-05 21:00:00 10.9 15 Oeste 33 Sudoeste 0 992.8 -0.4 76
2019-04-05 20:00:00 10.8 13 Sur 18 Sur 0 992.3 -0.9 88
2019-04-05 19:00:00 11.5 4 Sudoeste 17 Oeste 0.4 992.7 -1.1 78
2019-04-05 18:00:00 11.4 13 Oeste 30 Noroeste 1.2 993.2 0.5 80
2019-04-05 17:00:00 11.1 15 Noroeste -- -- -- 993.2 0 84
2019-04-05 16:00:00 12.5 29 Oeste 46 Oeste 0.3 993.8 -0.2 67
2019-04-05 15:00:00 17.7 7 Sur 28 Sudoeste 0 992.7 -1.8 41
2019-04-05 14:00:00 18.7 18 Oeste 37 Oeste 0 993.2 -1.6 35
2019-04-05 13:00:00 18.2 22 Oeste 32 Oeste 0 994 -0.9 34
2019-04-05 12:00:00 17.4 6 Noroeste 22 Oeste 0 994.5 -0.8 41
2019-04-05 11:00:00 15.7 13 Oeste 24 Noroeste 0 994.8 -0.3 49
2019-04-05 10:00:00 12.4 4 Oeste 9 Oeste 0 994.9 -0.1 74
2019-04-05 09:00:00 9.1 6 Oeste 11 Noroeste 0 995.3 0.5 87
2019-04-05 08:00:00 6.8 6 Noroeste 8 Noroeste 0 995.1 -0.1 94
2019-04-05 07:00:00 7 5 Noroeste 8 Noroeste 0 995 -0.5 95
2019-04-05 06:00:00 7.4 4 Oeste 9 Oeste 0 994.8 -1.1 93
2019-04-05 05:00:00 7.9 7 Noroeste 11 Noroeste 0 995.2 -0.8 92
2019-04-05 04:00:00 8.3 8 Noroeste 9 Noroeste 0 995.5 -0.6 93
2019-04-05 03:00:00 8.2 6 Noroeste 8 Noroeste 0 995.9 0 93
2019-04-05 02:00:00 8.9 3 Oeste 8 Sudoeste 0 996 0.1 90
2019-04-05 01:00:00 9.7 6 Sudoeste 15 Noroeste 0 996.1 0 89
2019-04-05 00:00:00 10.9 11 Noroeste 15 Norte 0 995.9 0.3 83
2019-04-04 23:00:00 11.9 10 Norte 17 Norte 0 995.9 0.6 77
2019-04-04 22:00:00 12.5 3 Este 22 Sudeste 0 996.1 0.8 73
2019-04-04 21:00:00 13.1 14 Sudeste 28 Sudeste 0 995.6 0.3 69
2019-04-04 20:00:00 14.2 21 Sudeste 32 Sudeste 0 995.3 -0.2 66
2019-04-04 19:00:00 14.8 27 Sudeste 41 Sudeste 0 995.3 -0.4 62
2019-04-04 18:00:00 15.9 29 Sudeste 39 Sudeste 0 995.3 -1.1 47
2019-04-04 17:00:00 17.2 23 Sudeste 39 Sudeste 0 995.5 -1.5 32
2019-04-04 16:00:00 17.8 17 Sudeste 35 Sudeste 0 995.7 -1.9 30
2019-04-04 15:00:00 18.6 10 Sudeste 30 Oeste 0 996.4 -1.6 16
2019-04-04 14:00:00 17.7 6 Oeste 26 Noroeste 0 997 -1 17
2019-04-04 13:00:00 16.2 15 Oeste 28 Oeste 0 997.6 -0.3 21
2019-04-04 12:00:00 15 9 Oeste 24 Noroeste 0 998 0.4 29
2019-04-04 11:00:00 13.2 17 Noroeste 28 Noroeste 0 998 1.1 37
2019-04-04 10:00:00 11.1 17 Noroeste 28 Oeste 0 997.9 1.6 54
2019-04-04 09:00:00 9.3 11 Oeste 15 Oeste 0 997.6 1.6 81
2019-04-04 08:00:00 8.2 12 Oeste 15 Oeste 0 996.9 0.9 92
2019-04-04 07:00:00 8.8 8 Oeste 13 Oeste 0 996.3 0.5 89
2019-04-04 06:00:00 9 8 Sudoeste 13 Sudoeste 0 996 0.2 88
2019-04-04 05:00:00 9.7 7 Noroeste 13 Noroeste 0 996 -0.1 89
2019-04-04 04:00:00 9.6 9 Sudoeste 24 Sudoeste 0 995.8 -0.7 88
2019-04-04 03:00:00 11.2 21 Sudoeste 30 Sur 0.2 995.8 -0.8 79
2019-04-04 02:00:00 12.1 5 Sur 22 Sudeste 0 996.1 0.3 67
2019-04-04 01:00:00 12.3 15 Este 24 Este 0 996.5 1.7 67
2019-04-04 00:00:00 13.2 15 Este 22 Este 0 996.6 3 70
2019-04-03 23:00:00 13.2 12 Este 21 Este 0 995.8 2.9 73
2019-04-03 22:00:00 13.5 15 Este 35 Nordeste 0 994.8 2.7 75
2019-04-03 21:00:00 14.1 24 Nordeste 52 Nordeste 0 993.6 1.3 76
2019-04-03 20:00:00 15.8 36 Nordeste 52 Nordeste 0 992.9 -0.1 71
2019-04-03 19:00:00 23 21 Oeste 42 Oeste 0 992.1 -1.9 26
2019-04-03 18:00:00 22.3 22 Oeste 46 Sudoeste 0 992.3 -2.8 30
2019-04-03 17:00:00 23.4 22 Sudoeste 46 Oeste 0 993 -3.3 29
2019-04-03 16:00:00 22.7 32 Oeste 46 Oeste 0 994 -3.5 30
2019-04-03 15:00:00 22.9 28 Oeste 48 Oeste 0 995.1 -3.8 35
2019-04-03 14:00:00 22 32 Oeste 46 Oeste 0 996.3 -3.4 39
2019-04-03 13:00:00 21.1 18 Sudoeste 32 Sudoeste 0 997.5 -2.9 46
2019-04-03 12:00:00 19.7 24 Oeste 46 Oeste 0 998.9 -1.9 50
2019-04-03 11:00:00 18.2 26 Oeste 39 Oeste 0 999.7 -1.1 57
2019-04-03 10:00:00 15.3 3 Noroeste 8 Norte 0 1000.4 -0.8 69
2019-04-03 09:00:00 11.5 4 Oeste 11 Noroeste 0 1000.8 -0.6 88
2019-04-03 08:00:00 7.9 9 Oeste 13 Oeste 0 1000.8 -1.3 95
2019-04-03 07:00:00 8.3 8 Oeste -- -- 0 1001.2 -1.6 95
2019-04-03 06:00:00 8.7 0 Calma 9 Oeste 0 1001.4 -2.2 96
2019-04-03 05:00:00 9.1 8 Oeste 17 Noroeste 0 1002.1 -2.4 96
2019-04-03 04:00:00 9.6 11 Oeste 13 Oeste 0 1002.8 -2.4 96
2019-04-03 03:00:00 10.3 10 Oeste 13 Oeste 0 1003.6 -1.8 95
2019-04-03 02:00:00 10.5 2 Oeste 13 Oeste 0 1004.5 -1.2 96
2019-04-03 01:00:00 11.1 5 Oeste 9 Oeste 0 1005.2 -0.7 96
2019-04-03 00:00:00 11.5 5 Oeste 9 Oeste 0 1005.4 -0.3 95
2019-04-02 23:00:00 12.1 6 Oeste 13 Oeste 0 1005.7 0.3 95
2019-04-02 22:00:00 12.9 13 Oeste 15 Oeste 0 1005.9 0.5 93
2019-04-02 21:00:00 14 5 Sur 13 Sudoeste 0 1005.7 -0.5 92
2019-04-02 20:00:00 15.4 9 Sudoeste 13 Sudoeste 0 1005.4 -0.6 86
2019-04-02 19:00:00 16 9 Sur 15 Este 0.3 1005.4 -0.5 80
2019-04-02 18:00:00 15.2 12 Sur 30 Noroeste 1 1006.2 -0.2 86
2019-04-02 17:00:00 16 9 Nordeste 22 Este 1.1 1006 -0.6 74
2019-04-02 16:00:00 17.6 16 Este 26 Este 0.4 1005.9 -1.4 62
2019-04-02 15:00:00 18.5 16 Este 30 Nordeste 0 1006.4 -1.4 61
2019-04-02 14:00:00 21.3 14 Este 26 Nordeste 0 1006.6 -1.1 50
2019-04-02 13:00:00 20.5 7 Este 17 Este 0 1007.3 -0.5 53
2019-04-02 12:00:00 18.9 7 Sudeste 13 Sudeste 0 1007.8 0.2 59
2019-04-02 11:00:00 17.5 3 Sur 9 Sudoeste 0 1007.7 0.3 64
2019-04-02 10:00:00 14.8 3 Sudeste 8 Nordeste 0 1007.8 0.5 74
2019-04-02 09:00:00 11.5 5 Sudoeste -- -- 0 1007.6 0.2 87
2019-04-02 08:00:00 8.5 7 Oeste 9 Oeste 0 1007.4 -0.4 95
2019-04-02 07:00:00 9 3 Sudoeste 11 Sur 0 1007.3 -1 94
2019-04-02 06:00:00 9.1 3 Oeste 11 Sudoeste 0 1007.4 -1.4 95
2019-04-02 05:00:00 9.1 8 Oeste 11 Oeste 0 1007.8 -1.5 96
2019-04-02 04:00:00 9.8 6 Sudoeste 11 Sur 0 1008.3 -1.3 94
2019-04-02 03:00:00 10.3 4 Sudoeste 13 Oeste 0 1008.8 -0.8 95
2019-04-02 02:00:00 10.4 10 Oeste 13 Oeste 0 1009.3 -0.3 95
2019-04-02 01:00:00 11.8 8 Oeste 9 Oeste 0 1009.6 0.2 92
2019-04-02 00:00:00 11.9 -- -- -- -- 0 1009.6 0.7 90
2019-04-01 23:00:00 12.2 0 Calma 8 Sur 0 1009.6 1.4 88
2019-04-01 22:00:00 12.7 5 Sur 11 Sudeste 0 1009.4 1.5 84
2019-04-01 21:00:00 13.3 8 Sur 13 Sur 0 1008.9 1.1 79
2019-04-01 20:00:00 14.5 9 Sudeste 15 Sur 0 1008.2 0.3 71
2019-04-01 19:00:00 15.7 10 Sur 13 Sur 0 1007.9 -0.4 60
2019-04-01 18:00:00 16.2 8 Este 17 Este 0 1007.8 -1 60
2019-04-01 17:00:00 16.8 6 Este 21 Nordeste 0 1007.9 -1.3 58
2019-04-01 16:00:00 -- 8 Este 28 Nordeste 0 1008.3 -0.8 --
2019-04-01 15:00:00 15.6 10 Este 24 Nordeste 0 1008.8 -0.3 66
2019-04-01 14:00:00 15 12 Este 22 Nordeste 0 1009.2 0.5 68
2019-04-01 13:00:00 15.2 15 Nordeste 30 Norte 0 1009.1 1.2 68
2019-04-01 12:00:00 13.3 7 Noroeste 11 Noroeste 0 1009.1 1.6 86
2019-04-01 11:00:00 12.4 5 Nordeste 18 Nordeste 0.2 1008.7 1.7 86
2019-04-01 10:00:00 11.9 9 Nordeste 18 Nordeste 0.1 1007.9 1.5 92
2019-04-01 09:00:00 11.6 11 Nordeste 22 Nordeste 0 1007.5 1.3 95
2019-04-01 08:00:00 11.7 12 Nordeste 17 Nordeste 0.6 1007 0.9 96
2019-04-01 07:00:00 11.5 5 Noroeste 11 Noroeste 1 1006.4 0.1 99
2019-04-01 06:00:00 11.3 9 Noroeste 13 Noroeste 0.3 1006.2 -0.3 98
2019-04-01 05:00:00 11.4 7 Noroeste 11 Noroeste 1.9 1006.1 -0.6 98
2019-04-01 04:00:00 11.4 9 Noroeste 13 Noroeste 0 1006.3 -0.5 97
2019-04-01 03:00:00 11.2 7 Noroeste 13 Noroeste 0 1006.5 -0.4 98
2019-04-01 02:00:00 11.2 7 Noroeste 15 Oeste 0.1 1006.7 -0.1 98
2019-04-01 01:00:00 11.1 9 Oeste 21 Norte 2.3 1006.8 0.4 98
2019-04-01 00:00:00 11.7 14 Norte 33 Nordeste 0.4 1006.9 1.1 91
2019-03-31 23:00:00 12.2 19 Nordeste 35 Nordeste 0 1006.8 1.2 86
2019-03-31 22:00:00 11.8 20 Nordeste 37 Nordeste 0 1006.4 0.6 87
2019-03-31 21:00:00 11.9 22 Nordeste 41 Nordeste 0.3 1005.8 0 90
2019-03-31 20:00:00 12.1 23 Nordeste 39 Nordeste 0.5 1005.6 -0.5 93
2019-03-31 19:00:00 12.3 24 Nordeste 46 Nordeste 0.7 1005.8 -0.5 93
2019-03-31 18:00:00 12.4 25 Nordeste 39 Nordeste 0.1 1005.8 -1.2 93
2019-03-31 17:00:00 12.4 17 Nordeste 37 Nordeste 0.3 1006.1 -1.6 92
2019-03-31 16:00:00 12.2 19 Nordeste 32 Nordeste 0.1 1006.3 -2 92
2019-03-31 15:00:00 11.9 14 Nordeste 22 Nordeste 0.9 1007 -1.9 93
2019-03-31 14:00:00 11.6 13 Norte 24 Norte 1.5 1007.7 -0.8 93
2019-03-31 13:00:00 11.2 12 Norte 21 Norte 2.3 1008.3 -0.6 95
2019-03-31 12:00:00 10.9 6 Noroeste 15 Norte 2.1 1008.9 -0.2 95
2019-03-31 11:00:00 10.5 11 Noroeste 17 Norte 2.4 1008.5 -0.6 97
2019-03-31 10:00:00 10.1 12 Noroeste 22 Noroeste 2.1 1008.9 -0.2 95
2019-03-31 09:00:00 10.4 12 Noroeste 17 Noroeste 1.7 1009.1 -1.1 91
2019-03-31 08:00:00 10.2 8 Noroeste 24 Noroeste 0 1009.1 -1.7 92
2019-03-31 07:00:00 10.4 13 Noroeste 24 Norte 0.2 1009.1 -2.3 86
2019-03-31 06:00:00 10.4 11 Noroeste 13 Noroeste 0 1010.2 -1.5 81
2019-03-31 05:00:00 10.4 10 Noroeste 11 Noroeste 0 1010.8 -1.4 81
2019-03-31 03:00:00 12.1 12 Nordeste 18 Nordeste 0 1011.7 -1.6 72
2019-03-31 01:00:00 12 9 Nordeste 17 Este 0 1012.2 -1.4 73
2019-03-31 00:00:00 12 11 Nordeste 17 Nordeste 0 1012.1 -1.7 74
2019-03-30 23:00:00 12.4 6 Este 26 Este 0 1013.3 -0.1 73
2019-03-30 22:00:00 12.9 8 Norte 24 Nordeste 0 1013.6 0.2 71
2019-03-30 21:00:00 13.2 8 Este 15 Este 0 1013.8 1.1 71
2019-03-30 20:00:00 -- 11 Nordeste 18 Este 0 1013.4 0.6 --
2019-03-30 19:00:00 14 13 Este 22 Este 0 1013.4 0.2 59
2019-03-30 18:00:00 15.3 15 Este 26 Este 0 1012.7 -1 47
2019-03-30 17:00:00 16 17 Este 30 Este 0 1012.8 -1.9 50
2019-03-30 16:00:00 16.3 16 Este 28 Este 0 1013.2 -2.3 51
2019-03-30 15:00:00 16.5 17 Este 30 Este 0 1013.7 -2.5 53
2019-03-30 14:00:00 16.7 18 Este 28 Este 0 1014.7 -1.9 55
2019-03-30 13:00:00 15.7 14 Este 28 Este 0 1015.5 -1.4 57
2019-03-30 12:00:00 15.9 19 Este 28 Este 0 1016.2 -0.8 55
2019-03-30 11:00:00 15.2 13 Nordeste 24 Este 0 1016.6 -0.3 56
2019-03-30 10:00:00 14.6 14 Nordeste 26 Nordeste 0 1016.9 0.3 62
2019-03-30 09:00:00 10.6 13 Noroeste 18 Noroeste 0 1017 0.6 67
2019-03-30 08:00:00 8.3 8 Noroeste 13 Noroeste 0 1016.9 0.3 78
2019-03-30 07:00:00 7 9 Noroeste 24 Norte 0 1016.6 -0.5 83
2019-03-30 06:00:00 7 9 Noroeste 17 Noroeste 0 1016.4 -1 84
2019-03-30 05:00:00 7.2 13 Noroeste 17 Noroeste 0 1016.6 -1.4 86
2019-03-30 04:00:00 7.2 8 Noroeste 11 Oeste 0 1017.1 -1.3 87
2019-03-30 03:00:00 8 5 Oeste 17 Noroeste 0 1017.4 -1.3 85
2019-03-30 02:00:00 8.8 13 Noroeste 18 Noroeste 0 1018 -1.1 82
2019-03-30 01:00:00 9.7 14 Noroeste 21 Norte 0 1018.4 -0.8 83
2019-03-30 00:00:00 10.7 10 Noroeste 13 Norte 0 1018.7 0 81
2019-03-29 23:00:00 11.7 8 Norte 15 Sudeste 0 1019.1 1.1 78
2019-03-29 22:00:00 12.7 5 Este 26 Nordeste 0 1019.2 1.3 74
2019-03-29 21:00:00 13.2 9 Este 28 Este 0 1018.7 0.9 70
2019-03-29 20:00:00 13.8 13 Este 21 Este 0 1018 0.1 65
2019-03-29 19:00:00 14.5 14 Este 24 Este 0 1017.9 -0.1 65
2019-03-29 18:00:00 15.5 15 Este 26 Este 0 1017.8 -0.8 55
2019-03-29 17:00:00 16.7 16 Este 26 Este 0 1017.9 -1.4 45
2019-03-29 16:00:00 17.5 16 Este 32 Este 0 1018 -1.9 44
2019-03-29 15:00:00 17.9 15 Este 30 Este 0 1018.6 -1.6 42
2019-03-29 14:00:00 17.5 15 Sudeste 28 Sudeste 0 1019.3 -1.4 44
2019-03-29 13:00:00 17.3 15 Este 26 Este 0 1019.9 -1 47
2019-03-29 12:00:00 16.8 15 Este 21 Este 0 1020.2 -0.5 44
2019-03-29 11:00:00 16.1 7 Sudeste 13 Este 0 1020.7 0.1 48
2019-03-29 10:00:00 14 4 Norte 15 Norte 0 1020.9 0.7 36
2019-03-29 09:00:00 10.3 9 Noroeste 18 Noroeste 0 1020.7 0.8 47
2019-03-29 08:00:00 7 6 Noroeste 13 Noroeste 0 1020.6 0.7 69
2019-03-29 07:00:00 5.5 10 Noroeste 15 Noroeste 0 1020.2 0.2 73
2019-03-29 06:00:00 6.1 9 Oeste 17 Noroeste 0 1019.9 -0.3 73
2019-03-29 05:00:00 6.6 10 Oeste 17 Noroeste 0 1019.9 -0.5 74
2019-03-29 04:00:00 6.9 8 Oeste 13 Oeste 0 1020 -0.6 77
2019-03-29 03:00:00 7.4 7 Noroeste 17 Noroeste 0 1020.2 -0.4 77
2019-03-29 02:00:00 8.3 11 Noroeste 15 Noroeste 0 1020.4 -0.3 79
2019-03-29 01:00:00 9.2 10 Noroeste 17 Noroeste 0 1020.6 0 79
2019-03-29 00:00:00 9.9 7 Noroeste 15 Noroeste 0 1020.6 0.2 82
2019-03-28 23:00:00 10.3 10 Noroeste 13 Noroeste 0 1020.7 1 81
2019-03-28 22:00:00 11.9 7 Oeste 11 Oeste 0 1020.6 1.1 76
2019-03-28 21:00:00 12.9 6 Este 15 Este 0 1020.4 1.4 74
2019-03-28 20:00:00 13.5 10 Este 17 Este 0 1019.7 0.9 67
2019-03-28 19:00:00 14.8 12 Este 22 Este 0 1019.5 0.5 48
2019-03-28 18:00:00 16.3 17 Sudeste 28 Este 0 1019 -0.3 37
2019-03-28 17:00:00 16.9 17 Sudeste 30 Sudeste 0 1018.8 -1.2 38
2019-03-28 16:00:00 18 19 Este 32 Este 0 1019 -1.3 30
2019-03-28 15:00:00 18.5 17 Este 30 Sudeste 0 1019.3 -1.2 28
2019-03-28 14:00:00 18.1 15 Este 28 Este 0 1020 -0.7 33
2019-03-28 13:00:00 18.1 16 Este 26 Este 0 1020.3 -0.6 33
2019-03-28 12:00:00 18.5 10 Este 21 Este 0 1020.5 -0.4 20
2019-03-28 11:00:00 17.8 4 Este 13 Norte 0 1020.7 0 21
2019-03-28 10:00:00 14.1 10 Norte 24 Norte 0 1020.9 0.4 31
2019-03-28 09:00:00 10.3 4 Sudoeste 9 Oeste 0 1020.9 0.8 47
2019-03-28 08:00:00 6 8 Oeste 11 Oeste 0 1020.7 0.7 65
2019-03-28 07:00:00 3.5 9 Oeste 17 Oeste 0 1020.5 0.7 74
2019-03-28 06:00:00 3.9 10 Oeste 15 Oeste 0 1020.1 0.3 73
2019-03-28 05:00:00 4.6 9 Oeste 11 Oeste 0 1020 0 75
2019-03-28 04:00:00 4.8 8 Oeste 9 Oeste 0 1019.8 -0.4 79
2019-03-28 03:00:00 5.5 8 Oeste 9 Oeste 0 1019.8 -0.1 78
2019-03-28 02:00:00 6.2 8 Noroeste 9 Noroeste 0 1020 0.5 78
2019-03-28 01:00:00 6.8 4 Oeste 9 Noroeste 0 1020.2 1.3 77
2019-03-28 00:00:00 7.6 5 Noroeste 9 Noroeste 0 1019.9 1.6 77
2019-03-27 23:00:00 8.9 4 Oeste 11 Noroeste 0 1019.5 1.5 73
2019-03-27 22:00:00 10.1 7 Noroeste -- -- 0 1018.9 1.5 69
2019-03-27 21:00:00 12.6 5 Sur 15 Sudeste 0 1018.3 1.5 60
2019-03-27 20:00:00 13.1 11 Sudeste 18 Sudeste 0 1018 1.1 57
2019-03-27 19:00:00 14.6 14 Sudeste 21 Sudeste 0 1017.4 0.7 45
2019-03-27 18:00:00 16.2 14 Sudeste 24 Sudeste 0 1016.8 0.1 37
2019-03-27 17:00:00 16.9 18 Sudeste 28 Sudeste 0 1016.9 0 34
2019-03-27 16:00:00 17.4 20 Sudeste 33 Sudeste 0 1016.7 -0.6 26
2019-03-27 15:00:00 18.1 19 Este 32 Este 0 1016.7 -0.7 26
2019-03-27 14:00:00 18.5 21 Este 32 Este 0 1016.9 -0.6 25
2019-03-27 13:00:00 18.6 14 Este 24 Este 0 1017.3 -0.3 22
2019-03-27 12:00:00 -- 13 Este 26 Este -- 1017.4 0 --
2019-03-27 11:00:00 17.4 5 Sur 15 Norte -- 1017.5 0.2 32
2019-03-27 10:00:00 14.7 6 Noroeste 18 Noroeste 0 1017.6 0.7 43
2019-03-27 09:00:00 11.6 11 Noroeste 22 Noroeste 0 1017.4 0.7 63
2019-03-27 08:00:00 8 5 Oeste 13 Noroeste 0 1017.3 0.7 79
2019-03-27 07:00:00 6 6 Oeste 11 Oeste 0 1016.9 0.2 86
2019-03-27 06:00:00 6.3 6 Oeste 11 Oeste 0 1016.7 -0.4 85
2019-03-27 05:00:00 6.5 8 Noroeste 9 Noroeste 0 1016.6 -0.6 86
2019-03-27 04:00:00 7.1 5 Noroeste 9 Oeste 0 1016.7 -0.6 83
2019-03-27 03:00:00 7.8 -- -- -- -- 0 1017.1 -0.1 80
2019-03-27 02:00:00 8.7 8 Noroeste 13 Noroeste 0 1017.2 -0.2 77
2019-03-27 01:00:00 10.8 5 Noroeste 9 Noroeste 0 1017.3 0.2 67
2019-03-27 00:00:00 12.3 6 Sudoeste 13 Sudeste 0 1017.2 0.7 61
2019-03-26 23:00:00 13.3 11 Sudeste 24 Sudeste 0 1017.4 2.1 57
2019-03-26 22:00:00 13.2 18 Sudeste 30 Este 0 1017.1 2.9 59
2019-03-26 21:00:00 13.4 19 Este 28 Sudeste 0 1016.5 3.1 62
2019-03-26 20:00:00 13.4 21 Este 32 Este 0 1015.3 2.2 62
2019-03-26 19:00:00 14.5 18 Sudeste 30 Sudeste 0 1014.2 1.2 65
2019-03-26 18:00:00 15.6 20 Sudeste 33 Este 0 1013.4 0.1 65
2019-03-26 17:00:00 16.8 19 Sudeste 30 Sudeste 0 1013.1 -0.8 56
2019-03-26 16:00:00 17.6 19 Sudeste 33 Este 0 1013 -1.3 56
2019-03-26 15:00:00 17.6 21 Sudeste 32 Sudeste -- 1013.3 -1.2 54
2019-03-26 14:00:00 17.5 18 Este 37 Este 0 1013.9 -1 54
2019-03-26 13:00:00 17.7 21 Este 33 Este 0 1014.3 -0.4 48
2019-03-26 12:00:00 17.7 19 Este 32 Este 0 1014.5 0 34
2019-03-26 11:00:00 16.6 14 Este 28 Este 0 1014.9 0.8 41
2019-03-26 10:00:00 15.8 12 Este 21 Este 0 1014.7 1.6 42
2019-03-26 09:00:00 12.3 13 Noroeste 21 Noroeste 0 1014.5 2.6 47
2019-03-26 08:00:00 8.8 5 Noroeste 9 Norte 0 1014.1 2.6 63
2019-03-26 07:00:00 6 5 Oeste 9 Oeste 0 1013.1 1.9 76
2019-03-26 06:00:00 6.3 5 Oeste 11 Oeste 0 1011.9 0.6 76
2019-03-26 05:00:00 6.7 5 Oeste 13 Oeste 0 1011.5 0.1 74
2019-03-26 04:00:00 7.2 10 Oeste 13 Oeste 0 1011.2 -0.3 74
2019-03-26 03:00:00 8 6 Noroeste 9 Noroeste 0 1011.3 -0.1 74
2019-03-26 02:00:00 8.4 8 Oeste 11 Oeste 0 1011.4 0 75
2019-03-26 01:00:00 9.1 -- -- -- -- 0 1011.5 0.3 75
2019-03-26 00:00:00 10 8 Noroeste 11 Noroeste 0 1011.4 0.6 76
2019-03-25 23:00:00 11.1 7 Noroeste 11 Noroeste 0 1011.4 1.2 78
2019-03-25 22:00:00 12.3 10 Oeste 11 Oeste 0 1011.2 1.1 73
2019-03-25 21:00:00 14.6 6 Este 26 Nordeste 0 1010.8 1.1 74
2019-03-25 20:00:00 15.5 11 Este 15 Este 0 1010.2 0.2 65
2019-03-25 19:00:00 17.3 11 Este 22 Este 0 1010.1 -0.5 45
2019-03-25 18:00:00 19.5 17 Este 26 Este 0 1009.7 -1.4 37
2019-03-25 17:00:00 20.9 14 Sudeste 22 Este 0 1010 -2.1 24
2019-03-25 16:00:00 21.5 15 Sudeste 26 Este 0 1010.6 -2.4 24
2019-03-25 15:00:00 21.9 16 Este 28 Este 0 1011.1 -2.3 24
2019-03-25 14:00:00 21.5 16 Este 35 Nordeste 0 1012.1 -1.7 23
2019-03-25 13:00:00 21.3 18 Este 30 Este 0 1013 -0.9 25
2019-03-25 12:00:00 21.3 12 Este 30 Nordeste 0 1013.4 -0.2 24
2019-03-25 11:00:00 20.6 5 Sudeste 9 Nordeste 0 1013.8 0.2 25
2019-03-25 10:00:00 17.3 2 Sudoeste 8 Sur 0 1013.9 0.6 32
2019-03-25 09:00:00 13.1 4 Sur 13 Oeste 0 1013.6 0.3 46
2019-03-25 08:00:00 8.7 7 Oeste 13 Oeste 0 1013.6 0.3 57
2019-03-25 07:00:00 6.7 10 Oeste 11 Oeste 0 1013.3 -0.4 63
2019-03-25 06:00:00 7.1 6 Sudoeste 9 Sudoeste 0 1013.3 -0.7 62
2019-03-25 05:00:00 6.9 7 Oeste 11 Oeste 0 1013.3 -1 66
2019-03-25 04:00:00 7.6 6 Oeste 9 Noroeste 0 1013.7 -0.9 62
2019-03-25 03:00:00 7.2 6 Oeste 13 Oeste 0 1014 -1 71
2019-03-25 02:00:00 8.2 8 Oeste 9 Oeste 0 1014.3 -1 69
2019-03-25 01:00:00 8.9 6 Oeste 8 Oeste 0 1014.6 -0.4 67
2019-03-25 00:00:00 9.9 5 Noroeste -- -- 0 1015 0.2 65
2019-03-24 23:00:00 11.4 5 Oeste 9 Oeste 0 1015.3 0.9 63
2019-03-24 22:00:00 13.1 5 Noroeste 11 Noroeste 0 1015 0.9 61
2019-03-24 21:00:00 16.5 3 Norte 22 Norte 0 1014.8 0.6 45
2019-03-24 20:00:00 17.4 7 Sudeste 11 Sudeste 0 1014.4 0.1 44
2019-03-24 19:00:00 19.5 10 Sudeste 17 Sudeste 0 1014.1 -0.7 33
2019-03-24 18:00:00 21.5 12 Sudeste 17 Sudeste 0 1014.2 -0.6 24
2019-03-24 17:00:00 22.2 12 Sudeste 21 Sudeste 0 1014.3 -1.3 22
2019-03-24 16:00:00 22.4 15 Sudeste 32 Sudeste 0 1014.8 -1.6 24
2019-03-24 15:00:00 23.6 12 Este 22 Este 0 1014.8 -2.2 19
2019-03-24 14:00:00 23 9 Este 22 Sudeste 0 1015.6 -1.6 24
2019-03-24 13:00:00 22.9 9 Sur 17 Este 0 1016.4 -1 26
2019-03-24 12:00:00 22.1 6 Sudeste 17 Sudeste 0 1017 -0.2 29
2019-03-24 11:00:00 20 3 Sudoeste 9 Oeste 0 1017.2 0.4 34
2019-03-24 10:00:00 16.3 5 Oeste 9 Oeste 0 1017.4 0.9 47
2019-03-24 09:00:00 12 4 Sudoeste 9 Oeste 0 1017.2 0.9 67
2019-03-24 08:00:00 7.8 7 Oeste 9 Oeste 0 1016.8 0.5 83
2019-03-24 07:00:00 6.9 3 Sudoeste 11 Oeste 0 1016.5 0.2 83
2019-03-24 06:00:00 7.1 6 Oeste 15 Oeste 0 1016.3 -0.5 83
2019-03-24 05:00:00 7.3 13 Oeste 15 Oeste 0 1016.3 -0.8 82
2019-03-24 04:00:00 8.1 7 Oeste 15 Noroeste 0 1016.3 -1.2 80
2019-03-24 03:00:00 8 5 Oeste 13 Oeste 0 1016.8 -0.9 82
2019-03-24 02:00:00 8.5 6 Oeste -- -- -- 1017.1 -0.8 84
2019-03-24 01:00:00 9.4 7 Oeste 9 Oeste 0 1017.5 -0.6 80
2019-03-24 00:00:00 10.1 7 Oeste 13 Noroeste 0 1017.7 -0.3 79
2019-03-23 23:00:00 10.5 9 Noroeste 11 Noroeste 0 1017.9 0.4 81
2019-03-23 22:00:00 11.9 5 Oeste 9 Noroeste 0 1018.1 0.7 75
2019-03-23 21:00:00 14.2 3 Sudoeste 5 Sudoeste 0 1018 0.6 63
2019-03-23 20:00:00 15.1 3 Sur 9 Este 0 1017.5 -0.1 58
2019-03-23 19:00:00 16.5 5 Sudeste 18 Este 0 1017.4 -0.1 54
2019-03-23 18:00:00 17.6 10 Este 22 Este 0 1017.4 -0.4 47
2019-03-23 17:00:00 18.4 14 Este 26 Este 0 1017.6 -0.6 45
2019-03-23 16:00:00 19.1 18 Este 30 Este 0 1017.5 -1.2 38
2019-03-23 15:00:00 18.9 17 Este 30 Este 0 1017.8 -1.4 36
2019-03-23 14:00:00 18.5 15 Este 28 Este 0 1018.2 -1.5 36
2019-03-23 13:00:00 19 17 Este 26 Este 0 1018.7 -1.3 33
2019-03-23 12:00:00 18.3 8 Este 21 Este 0 1019.2 -0.7 35
2019-03-23 11:00:00 17.2 4 Oeste 17 Noroeste 0 1019.7 -0.3 40
2019-03-23 10:00:00 12.2 12 Noroeste 22 Noroeste 0 1020 0.5 57
2019-03-23 09:00:00 10.3 13 Noroeste 17 Noroeste 0 1019.9 0.7 64
2019-03-23 08:00:00 7.9 11 Noroeste 21 Noroeste 0 1020 1 74
2019-03-23 07:00:00 7.8 11 Noroeste 15 Noroeste 0 1019.5 0.3 75
2019-03-23 06:00:00 7.6 7 Noroeste 15 Noroeste 0 1019.2 -0.3 77
2019-03-23 05:00:00 8.5 15 Noroeste 21 Noroeste 0 1019 -0.8 69
2019-03-23 04:00:00 8.7 14 Noroeste 18 Noroeste 0 1019.2 -0.4 71
2019-03-23 03:00:00 8.4 9 Noroeste 11 Oeste 0 1019.5 -0.2 81
2019-03-23 02:00:00 8.7 6 Oeste -- -- -- 1019.8 -0.2 75
2019-03-23 01:00:00 8.9 8 Sudoeste 11 Sudoeste 0 1019.6 0 72
2019-03-23 00:00:00 9.4 5 Noroeste 9 Noroeste 0 1019.7 0.1 72
2019-03-22 23:00:00 10.6 5 Norte 13 Noroeste 0 1020 0.7 62
2019-03-22 22:00:00 10.9 9 Noroeste 15 Noroeste 0 1019.6 0.5 69
2019-03-22 21:00:00 13.2 6 Oeste 13 Noroeste 0 1019.6 0.8 59
2019-03-22 20:00:00 14.1 5 Este 11 Este 0 1019.3 0.5 50
2019-03-22 19:00:00 15.5 8 Este 18 Este 0 1019.1 0.1 43
2019-03-22 18:00:00 16.4 15 Este 28 Este 0 1018.8 -0.5 40
2019-03-22 17:00:00 17.4 20 Este 32 Este 0 1018.8 -1.1 36
2019-03-22 16:00:00 17.8 22 Este 35 Este 0 1019 -1.4 34
2019-03-22 15:00:00 18.1 23 Este 41 Este 0 1019.3 -1.4 33
2019-03-22 14:00:00 17.9 25 Este 37 Este 0 1019.9 -1 34
2019-03-22 13:00:00 17.3 24 Este 37 Este 0 1020.4 -0.4 36
2019-03-22 12:00:00 17.1 24 Nordeste 35 Nordeste 0 1020.7 0.3 30
2019-03-22 11:00:00 16.1 13 Nordeste 26 Nordeste 0 1020.9 0.8 33
2019-03-22 10:00:00 12.4 10 Noroeste 15 Noroeste 0 1020.8 1.2 50
2019-03-22 09:00:00 9.5 11 Noroeste 17 Noroeste 0 1020.4 0.9 60
2019-03-22 08:00:00 8 9 Oeste 15 Noroeste 0 1020.1 0.6 67
2019-03-22 07:00:00 6.6 6 Oeste 13 Oeste 0 1019.6 0.1 76
2019-03-22 06:00:00 6.1 8 Oeste 15 Oeste 0 1019.5 -0.4 78
2019-03-22 05:00:00 6.1 8 Oeste 22 Noroeste 0 1019.5 -0.8 78
2019-03-22 04:00:00 6.8 20 Noroeste 28 Noroeste 0 1019.5 -1.1 76
2019-03-22 03:00:00 6.9 14 Noroeste 24 Noroeste 0 1019.9 -1.1 76
2019-03-22 02:00:00 7.4 18 Noroeste -- -- -- 1020.3 -0.7 73
2019-03-22 01:00:00 7.7 16 Noroeste 22 Noroeste 0 1020.6 -0.4 75
2019-03-22 00:00:00 8.6 16 Noroeste 24 Norte 0 1021 0.1 72
2019-03-21 23:00:00 9.5 11 Noroeste 15 Norte 0 1021 0.6 74
2019-03-21 22:00:00 10.5 6 Noroeste 21 Norte 0 1021 1 70
2019-03-21 21:00:00 11.9 7 Norte 18 Nordeste 0 1020.9 1.4 64
2019-03-21 20:00:00 12.6 11 Nordeste 24 Este 0 1020.4 0.9 60
2019-03-21 19:00:00 13.4 17 Este 30 Este 0 1020 0.4 54
2019-03-21 18:00:00 14.6 23 Este 33 Este 0 1019.5 -0.5 46
2019-03-21 17:00:00 15.1 24 Este 35 Este 0 1019.5 -1 41
2019-03-21 16:00:00 15.7 24 Este 39 Este 0 1019.6 -1.4 42
2019-03-21 15:00:00 16 27 Este 42 Este 0 1020 -1.1 40
2019-03-21 14:00:00 16.2 26 Este 41 Este 0 1020.5 -0.6 37
2019-03-21 13:00:00 16.2 27 Nordeste 42 Este 0 1021 -0.2 33
2019-03-21 12:00:00 15.8 24 Nordeste 45 Este 0 1021.1 0.2 31
2019-03-21 11:00:00 15.4 21 Nordeste 39 Norte 0 1021.1 0.6 33
2019-03-21 10:00:00 12.9 7 Noroeste 18 Noroeste 0 1021.2 1.2 49
2019-03-21 09:00:00 9.7 15 Noroeste 24 Noroeste 0 1020.9 1.3 65
2019-03-21 08:00:00 6.9 5 Oeste 26 Noroeste 0 1020.5 0.8 78
2019-03-21 07:00:00 6.1 18 Noroeste 26 Noroeste 0 1020 0 80
2019-03-21 06:00:00 6.4 20 Noroeste 28 Noroeste 0 1019.6 -1.1 80
2019-03-21 05:00:00 6 12 Noroeste 24 Noroeste 0 1019.7 -1.6 86
2019-03-21 04:00:00 7 19 Noroeste 28 Noroeste 0 1020 -1.6 82
2019-03-21 03:00:00 6.9 22 Noroeste 28 Noroeste 0 1020.7 -1.2 85
2019-03-21 02:00:00 6.9 17 Noroeste -- -- -- 1021.3 -0.6 86
2019-03-21 01:00:00 7.2 12 Noroeste 21 Noroeste 0 1021.6 -0.2 88
2019-03-21 00:00:00 7.5 7 Noroeste 13 Noroeste 0 1021.9 0.5 89
2019-03-20 23:00:00 8.3 8 Noroeste 9 Noroeste 0 1021.9 1.1 89
2019-03-20 22:00:00 10.4 7 Noroeste -- -- 0 1021.8 1.5 78
2019-03-20 21:00:00 11.4 7 Este 21 Nordeste 0 1021.4 1.7 72
2019-03-20 20:00:00 11.8 9 Este 26 Nordeste 0 1020.8 1.5 67
2019-03-20 19:00:00 12.8 11 Este 21 Sudeste 0 1020.3 1 63
2019-03-20 18:00:00 14.1 11 Este 22 Sudeste 0 1019.7 0.2 54
2019-03-20 17:00:00 14.6 15 Sudeste 28 Sudeste 0 1019.3 -0.9 56
2019-03-20 16:00:00 14.3 14 Sudeste 30 Sudeste 0 1019.3 -1.5 56
2019-03-20 15:00:00 15.4 17 Sudeste 28 Sur 0 1019.5 -1.5 49
2019-03-20 14:00:00 15.2 18 Sudeste 33 Sudeste 0 1020.2 -0.7 47
2019-03-20 13:00:00 14.7 15 Sudeste 30 Este 0 1020.8 0 47
2019-03-20 12:00:00 14.2 12 Este 22 Este 0 1021 0.4 48
2019-03-20 11:00:00 14.6 6 Norte 17 Noroeste 0 1020.9 0.5 49
2019-03-20 10:00:00 12.5 14 Noroeste 24 Noroeste 0 1020.8 0.7 58
2019-03-20 09:00:00 10.6 17 Noroeste 24 Noroeste 0 1020.6 0.7 64
2019-03-20 08:00:00 9.3 10 Noroeste 15 Noroeste 0 1020.4 0.9 85
2019-03-20 07:00:00 8.9 8 Oeste 15 Oeste 0 1020.1 0.7 89
2019-03-20 06:00:00 9 9 Noroeste 15 Noroeste 0 1019.9 -0.1 89
2019-03-20 05:00:00 8.7 10 Noroeste 17 Noroeste 0 1019.5 -0.9 94
2019-03-20 04:00:00 8.7 13 Noroeste 21 Noroeste 0 1019.4 -1.1 94
2019-03-20 03:00:00 8.7 15 Noroeste 21 Noroeste 0.1 1020 0.4 95
2019-03-20 02:00:00 8.7 4 Noroeste -- -- -- 1020.4 1.2 92
2019-03-20 01:00:00 8.8 13 Nordeste 26 Norte 14.3 1020.5 1.8 91
2019-03-20 00:00:00 11.9 8 Sur 11 Sur 0 1019.6 1.4 70
2019-03-19 23:00:00 12 7 Sudeste 11 Sudeste 0 1019.2 1.6 70
2019-03-19 22:00:00 11.9 0 Calma 5 Noroeste 0 1018.7 1.8 73
2019-03-19 21:00:00 12.2 4 Sudoeste 8 Sudoeste 0 1018.2 2 70
2019-03-19 20:00:00 12.3 7 Sudeste 17 Sudeste 0.1 1017.6 2 71
2019-03-19 19:00:00 13.4 11 Este 30 Nordeste 0 1016.9 1.8 55
2019-03-19 18:00:00 13.8 13 Sudeste 21 Sudeste 0 1016.2 1.3 48
2019-03-19 17:00:00 14.4 15 Sudeste 30 Sudeste 0 1015.6 0.7 46
2019-03-19 16:00:00 15.4 17 Sudeste 32 Este 0 1015.1 0 41
2019-03-19 15:00:00 16.4 20 Sudeste 37 Este 0 1014.9 -0.4 38
2019-03-19 14:00:00 17.1 22 Este 33 Este 0 1014.9 -0.4 33
2019-03-19 13:00:00 17.1 15 Este 33 Este 0 1015.1 -0.5 32
2019-03-19 12:00:00 16 12 Nordeste 33 Este 0 1015.3 -0.5 33
2019-03-19 11:00:00 15.9 14 Norte 33 Nordeste 0 1015.3 -0.2 33
2019-03-19 10:00:00 14.6 25 Noroeste 37 Noroeste 0 1015.6 0.1 38
2019-03-19 09:00:00 11.7 13 Noroeste 30 Noroeste 0 1015.8 0.4 53
2019-03-19 08:00:00 11.4 19 Noroeste 32 Noroeste 0 1015.5 0.2 50
2019-03-19 07:00:00 11.3 22 Noroeste 39 Noroeste 0 1015.5 0.3 49
2019-03-19 06:00:00 10.3 21 Noroeste 26 Noroeste 0 1015.4 -0.3 47
2019-03-19 05:00:00 8.6 8 Oeste 22 Oeste 0 1015.3 -0.8 61
2019-03-19 04:00:00 8 17 Oeste 24 Noroeste 0 1015.2 -1.3 65
2019-03-19 03:00:00 7.7 16 Oeste 22 Noroeste 0 1015.7 -1.1 71
2019-03-19 02:00:00 7.8 12 Noroeste -- -- -- 1016.1 -0.9 72
2019-03-19 01:00:00 7.6 5 Noroeste -- -- 0 1016.5 -0.4 77
2019-03-19 00:00:00 -- 8 Noroeste 9 Noroeste 0 1016.8 0.6 --